Terminal Aerodrome Forecast
Issued by NWS Tuscon, AZ

Home | Current Version | Previous Version | Text Only | Print | Product List | Glossary On
Versions: 1 2 3 4 5 6 7 8 9 10 11 12 13 14 15
000
FTUS45 KTWC 292338
TAFDUG
TAF
KDUG 292338Z 3000/3024 30008KT P6SM VCSH SCT100 SCT250
     FM300200 35008KT P6SM SCT100 BKN250
     FM300800 VRB03KT P6SM SCT250
     FM301900 25009KT P6SM VCSH SCT080 SCT140=

USA.gov is the U.S. government's official web portal to all federal, state and local government web resources and services.